Time;durP1;ratioP1;P1;durP2;ratioP2;P2;SDS_P1;SDS_P2;PMS_P1;PMS_P2;Temp;Humidity;BMP_temperature;BMP_pressure;BME280_temperature;BME280_humidity;BME280_pressure;Samples;Min_cycle;Max_cycle;Signal;HPM_P1;HPM_P2
2022/08/21 00:00:27;;;;;;;6.72;5.97;;;16.80;99.90;;;;;;5095561;28;20032;-76
2022/08/21 00:03:01;;;;;;;8.23;6.82;;;16.80;99.90;;;;;;5096517;28;20079;-76
2022/08/21 00:05:27;;;;;;;6.03;5.40;;;16.80;99.90;;;;;;5096728;28;20389;-76
2022/08/21 00:07:53;;;;;;;6.15;5.55;;;16.80;99.90;;;;;;5096660;28;20123;-76
2022/08/21 00:10:19;;;;;;;6.53;5.75;;;16.80;99.90;;;;;;5096757;28;20103;-76
2022/08/21 00:12:45;;;;;;;5.95;5.45;;;16.90;99.90;;;;;;5096254;28;20389;-76
2022/08/21 00:15:16;;;;;;;6.10;5.50;;;16.90;99.90;;;;;;5096417;28;20038;-76
2022/08/21 00:17:42;;;;;;;6.57;5.93;;;16.90;99.90;;;;;;5096355;28;20020;-76
2022/08/21 00:20:11;;;;;;;6.53;5.93;;;17.00;99.90;;;;;;5096525;28;20032;-76
2022/08/21 00:22:37;;;;;;;6.45;5.85;;;17.00;99.90;;;;;;5096046;28;20051;-76
2022/08/21 00:25:05;;;;;;;5.95;5.45;;;17.00;99.90;;;;;;5096471;28;20461;-76
2022/08/21 00:27:31;;;;;;;6.43;5.82;;;17.00;99.90;;;;;;5095275;28;20365;-76
2022/08/21 00:29:57;;;;;;;6.93;5.88;;;17.00;99.90;;;;;;5096067;28;20028;-76
2022/08/21 00:32:24;;;;;;;6.82;6.20;;;17.10;99.90;;;;;;5096207;28;20070;-76
2022/08/21 00:34:51;;;;;;;6.53;5.85;;;17.10;99.90;;;;;;5096160;28;20461;-76
2022/08/21 00:37:16;;;;;;;6.65;6.05;;;17.10;99.90;;;;;;5094807;28;20469;-76
2022/08/21 00:39:42;;;;;;;7.28;6.57;;;17.10;99.90;;;;;;5094641;28;20115;-76
2022/08/21 00:42:09;;;;;;;7.03;6.32;;;17.10;99.90;;;;;;5094667;28;20031;-76
2022/08/21 00:44:35;;;;;;;7.57;6.40;;;17.00;99.90;;;;;;5095941;28;20089;-76
2022/08/21 00:47:01;;;;;;;7.40;6.28;;;17.10;99.90;;;;;;5094570;28;20020;-76
2022/08/21 00:49:26;;;;;;;7.57;6.20;;;17.10;99.90;;;;;;5095689;28;20103;-76
2022/08/21 00:51:57;;;;;;;6.60;5.90;;;17.20;99.90;;;;;;5095445;28;20028;-76
2022/08/21 00:54:26;;;;;;;7.63;5.88;;;17.20;99.90;;;;;;5094843;28;20028;-76
2022/08/21 00:56:56;;;;;;;6.95;5.88;;;17.20;99.90;;;;;;5095932;28;20020;-76
2022/08/21 00:59:23;;;;;;;8.95;7.05;;;17.30;99.90;;;;;;5095541;28;20024;-76
2022/08/21 01:01:50;;;;;;;7.63;6.78;;;17.30;99.90;;;;;;5094455;28;20020;-76
2022/08/21 01:04:16;;;;;;;9.93;6.63;;;17.30;99.90;;;;;;5095448;28;20024;-76
2022/08/21 01:06:43;;;;;;;6.97;6.15;;;17.40;99.90;;;;;;5095198;28;20190;-76
2022/08/21 01:09:08;;;;;;;6.93;6.30;;;17.40;99.90;;;;;;5095124;28;20460;-76
2022/08/21 01:11:35;;;;;;;7.40;6.15;;;17.40;99.90;;;;;;5095549;28;20059;-76
2022/08/21 01:14:02;;;;;;;7.05;6.35;;;17.40;99.90;;;;;;5095330;28;20046;-76
2022/08/21 01:16:28;;;;;;;8.32;6.65;;;17.40;99.90;;;;;;5095281;28;20059;-76
2022/08/21 01:18:54;;;;;;;7.18;6.55;;;17.40;99.90;;;;;;5095153;28;20501;-76
2022/08/21 01:21:23;;;;;;;8.65;7.75;;;17.40;99.90;;;;;;5094841;28;20423;-76
2022/08/21 01:23:52;;;;;;;8.88;7.43;;;17.40;99.90;;;;;;5095375;28;20035;-76
2022/08/21 01:26:22;;;;;;;8.07;7.05;;;17.30;99.90;;;;;;5095172;28;20071;-76
2022/08/21 01:29:30;;;;;;;8.13;7.13;;;17.30;99.90;;;;;;5095118;28;20028;-76
2022/08/21 01:31:57;;;;;;;8.73;7.87;;;17.30;99.90;;;;;;5073341;28;20036;-76
2022/08/21 01:34:23;;;;;;;9.45;7.72;;;17.20;99.90;;;;;;5094888;28;20028;-76
2022/08/21 01:36:48;;;;;;;9.30;7.60;;;17.20;99.90;;;;;;5094116;28;20047;-77
2022/08/21 01:39:15;;;;;;;8.55;7.50;;;17.20;99.90;;;;;;5093585;28;20465;-77
2022/08/21 01:41:41;;;;;;;9.65;8.52;;;17.10;99.90;;;;;;5093890;28;20028;-77
2022/08/21 01:44:07;;;;;;;9.40;8.40;;;17.10;99.90;;;;;;5094678;28;20028;-77
2022/08/21 01:46:32;;;;;;;11.48;8.68;;;17.00;99.90;;;;;;5094456;28;20016;-77
2022/08/21 01:48:58;;;;;;;10.43;9.35;;;17.00;99.90;;;;;;5094329;28;20028;-77
2022/08/21 01:51:24;;;;;;;12.45;9.82;;;16.90;99.90;;;;;;5094677;28;20081;-77
2022/08/21 01:53:50;;;;;;;11.52;9.93;;;17.00;99.90;;;;;;5094581;28;20024;-77
2022/08/21 01:56:16;;;;;;;13.00;10.77;;;16.90;99.90;;;;;;5093279;28;20054;-79
2022/08/21 01:58:45;;;;;;;13.55;11.05;;;16.80;99.90;;;;;;5093905;28;20073;-78
2022/08/21 02:01:12;;;;;;;14.95;11.02;;;16.80;99.90;;;;;;5094798;28;20461;-79
2022/08/21 02:03:37;;;;;;;14.40;10.60;;;16.80;99.90;;;;;;5094472;28;20039;-79
2022/08/21 02:06:05;;;;;;;12.65;10.57;;;16.80;99.90;;;;;;5094327;28;20040;-79
2022/08/21 02:08:30;;;;;;;11.30;9.63;;;16.80;99.90;;;;;;5093244;28;20131;-78
2022/08/21 02:10:56;;;;;;;11.45;9.20;;;16.70;99.90;;;;;;5094059;28;20056;-78
2022/08/21 02:13:22;;;;;;;9.80;8.55;;;16.70;99.90;;;;;;5094398;28;20031;-79
2022/08/21 02:15:48;;;;;;;9.75;8.75;;;16.70;99.90;;;;;;5092918;28;20056;-79
2022/08/21 02:18:14;;;;;;;12.05;9.32;;;16.70;99.90;;;;;;5094137;28;20044;-78
2022/08/21 02:20:43;;;;;;;10.80;9.63;;;16.70;99.90;;;;;;5092855;28;20020;-78
2022/08/21 02:23:10;;;;;;;13.20;10.38;;;16.70;99.90;;;;;;5094343;28;20039;-79
2022/08/21 02:25:36;;;;;;;13.40;11.45;;;16.70;99.90;;;;;;5092819;28;20491;-79
2022/08/21 02:28:08;;;;;;;14.35;11.55;;;16.70;99.90;;;;;;5092873;28;20028;-77
2022/08/21 02:30:38;;;;;;;14.80;12.07;;;16.70;99.90;;;;;;5094391;28;20021;-76
2022/08/21 02:33:05;;;;;;;15.32;12.65;;;16.60;99.90;;;;;;5093049;28;20081;-75
2022/08/21 02:35:31;;;;;;;18.08;13.57;;;16.60;99.90;;;;;;5094041;28;20461;-75
2022/08/21 02:38:03;;;;;;;17.55;13.38;;;16.60;99.90;;;;;;5092947;28;20074;-75
2022/08/21 02:40:32;;;;;;;16.83;13.65;;;16.60;99.90;;;;;;5092625;28;20032;-75
2022/08/21 02:42:59;;;;;;;16.25;13.27;;;16.70;99.90;;;;;;5093683;28;20538;-75
2022/08/21 02:45:25;;;;;;;19.27;14.90;;;16.70;99.90;;;;;;5094087;28;20038;-75
2022/08/21 02:47:53;;;;;;;16.98;13.93;;;16.70;99.90;;;;;;5093953;28;20016;-75
2022/08/21 02:50:26;;;;;;;15.70;12.57;;;16.70;99.90;;;;;;5093571;28;20032;-75
2022/08/21 02:52:52;;;;;;;15.13;12.13;;;16.70;99.90;;;;;;5095158;28;20024;-74
2022/08/21 02:55:20;;;;;;;16.48;12.70;;;16.70;99.90;;;;;;5096799;28;20028;-74
2022/08/21 02:57:46;;;;;;;13.68;11.15;;;16.70;99.90;;;;;;5097993;28;20028;-75
2022/08/21 03:00:13;;;;;;;13.70;11.15;;;16.70;99.90;;;;;;5097954;28;20072;-74
2022/08/21 03:02:39;;;;;;;13.48;10.05;;;16.60;99.90;;;;;;5096558;28;20032;-75
2022/08/21 03:05:07;;;;;;;11.98;10.25;;;16.60;99.90;;;;;;5096844;28;20358;-74
2022/08/21 03:07:34;;;;;;;12.40;10.30;;;16.60;99.90;;;;;;5097824;28;20066;-74
2022/08/21 03:10:00;;;;;;;10.55;9.45;;;16.60;99.90;;;;;;5097694;28;20024;-73
2022/08/21 03:12:25;;;;;;;12.18;9.68;;;16.60;99.90;;;;;;5097968;28;20035;-74
2022/08/21 03:14:51;;;;;;;11.70;9.68;;;16.60;99.90;;;;;;5096573;28;20377;-74
2022/08/21 03:17:17;;;;;;;12.38;9.70;;;16.60;99.90;;;;;;5096619;28;20055;-75
2022/08/21 03:19:42;;;;;;;12.27;10.27;;;16.60;99.90;;;;;;5096056;28;20048;-75
2022/08/21 03:22:08;;;;;;;10.55;8.30;;;16.60;99.90;;;;;;5096779;28;20364;-74
2022/08/21 03:24:33;;;;;;;9.88;8.88;;;16.50;99.90;;;;;;5096090;28;20065;-74
2022/08/21 03:26:59;;;;;;;11.10;8.18;;;16.60;99.90;;;;;;5097053;28;20077;-75
2022/08/21 03:29:25;;;;;;;7.97;7.18;;;16.50;99.90;;;;;;5097617;28;20031;-74
2022/08/21 03:31:53;;;;;;;7.72;6.85;;;16.50;99.90;;;;;;5097555;28;20023;-74
2022/08/21 03:34:19;;;;;;;7.05;6.35;;;16.50;99.90;;;;;;5095682;28;20028;-74
2022/08/21 03:36:44;;;;;;;7.10;6.40;;;16.50;99.90;;;;;;5095971;28;20027;-74
2022/08/21 03:39:10;;;;;;;5.63;5.13;;;16.50;99.90;;;;;;5096978;28;20051;-74
2022/08/21 03:41:36;;;;;;;6.70;5.70;;;16.50;99.90;;;;;;5096340;28;20051;-74
2022/08/21 03:44:01;;;;;;;6.00;5.40;;;16.50;99.90;;;;;;5097306;28;20357;-74
2022/08/21 03:46:27;;;;;;;4.60;4.20;;;16.50;99.90;;;;;;5096059;28;20040;-74
2022/08/21 03:48:53;;;;;;;4.68;4.18;;;16.50;99.90;;;;;;5095910;28;20032;-74
2022/08/21 03:51:19;;;;;;;5.75;4.97;;;16.50;99.90;;;;;;5096905;28;20107;-75
2022/08/21 03:53:44;;;;;;;4.70;4.03;;;16.50;99.90;;;;;;5097092;28;20028;-76
2022/08/21 03:56:11;;;;;;;5.50;4.50;;;16.50;99.90;;;;;;5096881;28;20161;-77
2022/08/21 03:58:38;;;;;;;5.28;4.75;;;16.50;99.90;;;;;;5095553;28;20024;-76
2022/08/21 04:01:06;;;;;;;5.00;4.57;;;16.40;99.90;;;;;;5096758;28;20020;-75
2022/08/21 04:03:33;;;;;;;5.15;4.75;;;16.50;99.90;;;;;;5096214;28;20367;-75
2022/08/21 04:05:59;;;;;;;6.05;4.13;;;16.40;99.90;;;;;;5096180;28;20036;-74
2022/08/21 04:08:25;;;;;;;4.47;3.90;;;16.40;99.90;;;;;;5096719;28;20066;-74
2022/08/21 04:10:53;;;;;;;4.30;3.63;;;16.40;99.90;;;;;;5095388;28;20389;-74
2022/08/21 04:13:20;;;;;;;4.18;3.78;;;16.40;99.90;;;;;;5096485;28;20031;-73
2022/08/21 04:15:46;;;;;;;4.60;4.20;;;16.40;99.90;;;;;;5096427;28;20036;-74
2022/08/21 04:18:11;;;;;;;4.78;4.38;;;16.40;99.90;;;;;;5096342;28;20541;-74
2022/08/21 04:20:38;;;;;;;4.10;3.80;;;16.50;99.90;;;;;;5096100;28;20031;-74
2022/08/21 04:23:03;;;;;;;4.57;3.83;;;16.50;99.90;;;;;;5096584;28;20063;-74
2022/08/21 04:25:30;;;;;;;4.35;3.95;;;16.50;99.90;;;;;;5096417;28;20060;-73
2022/08/21 04:27:55;;;;;;;4.38;3.97;;;16.50;99.90;;;;;;5096181;28;20029;-73
2022/08/21 04:30:21;;;;;;;4.45;4.05;;;16.50;99.90;;;;;;5094887;28;20028;-74
2022/08/21 04:32:50;;;;;;;4.15;3.83;;;16.40;99.90;;;;;;5095926;28;20035;-74
2022/08/21 04:35:19;;;;;;;4.93;4.53;;;16.50;99.90;;;;;;5096207;28;20028;-61
2022/08/21 04:37:44;;;;;;;6.28;4.68;;;16.50;99.90;;;;;;5095937;28;20550;-61
2022/08/21 04:40:13;;;;;;;3.97;3.65;;;16.60;99.90;;;;;;5095676;28;20059;-61
2022/08/21 04:42:52;;;;;;;4.65;3.90;;;16.70;99.90;;;;;;5095988;28;20020;-61
2022/08/21 04:45:23;;;;;;;4.20;3.80;;;16.70;99.90;;;;;;5094637;28;20477;-62
2022/08/21 04:47:51;;;;;;;4.22;3.83;;;16.70;99.90;;;;;;5094544;28;20063;-61
2022/08/21 04:50:17;;;;;;;3.67;3.38;;;16.80;99.90;;;;;;5095585;28;20110;-61
2022/08/21 04:52:43;;;;;;;4.22;3.83;;;16.80;99.90;;;;;;5095474;28;20469;-61
2022/08/21 04:55:09;;;;;;;3.72;3.42;;;16.80;99.90;;;;;;5095689;28;20039;-61
2022/08/21 04:57:35;;;;;;;4.72;4.32;;;16.80;99.90;;;;;;5095553;28;20519;-61
2022/08/21 05:00:03;;;;;;;3.78;3.40;;;16.80;99.90;;;;;;5094589;28;20480;-61
2022/08/21 05:02:32;;;;;;;4.10;3.80;;;16.80;99.90;;;;;;5094201;28;20445;-61
2022/08/21 05:04:59;;;;;;;;;;;16.90;99.90;;;;;;5095791;28;20036;-61
2022/08/21 05:07:27;;;;;;;4.65;3.95;;;16.90;99.90;;;;;;5095138;28;19904;-61
2022/08/21 05:09:53;;;;;;;5.13;4.63;;;16.90;99.90;;;;;;5094167;28;20020;-61
2022/08/21 05:12:19;;;;;;;6.90;5.20;;;16.90;99.90;;;;;;5094021;28;20319;-61
2022/08/21 05:14:45;;;;;;;5.60;5.10;;;16.90;99.90;;;;;;5095286;28;20032;-61
2022/08/21 05:17:10;;;;;;;5.65;5.13;;;16.90;99.90;;;;;;5094757;28;20021;-61
2022/08/21 05:19:36;;;;;;;5.47;4.97;;;17.00;99.90;;;;;;5093871;28;20040;-61
2022/08/21 05:22:02;;;;;;;5.47;4.97;;;17.10;99.90;;;;;;5093864;28;20024;-61
2022/08/21 05:24:28;;;;;;;5.70;4.68;;;17.10;99.90;;;;;;5094761;28;20030;-62
2022/08/21 05:26:54;;;;;;;5.00;4.60;;;17.20;99.90;;;;;;5094373;28;20024;-61
2022/08/21 05:29:20;;;;;;;5.88;4.60;;;17.20;99.90;;;;;;5093724;28;20119;-61
2022/08/21 05:31:47;;;;;;;5.40;4.90;;;17.30;99.90;;;;;;5093832;28;20433;-61
2022/08/21 05:34:15;;;;;;;4.55;4.15;;;17.30;99.90;;;;;;5094496;28;20051;-61
2022/08/21 05:36:40;;;;;;;4.53;3.65;;;17.40;99.90;;;;;;5094899;28;20099;-61
2022/08/21 05:39:06;;;;;;;4.40;4.00;;;17.40;99.90;;;;;;5094869;28;20047;-61
2022/08/21 05:41:32;;;;;;;4.70;4.05;;;17.50;99.90;;;;;;5094722;28;20024;-61
2022/08/21 05:43:57;;;;;;;4.28;3.92;;;17.50;99.90;;;;;;5094964;28;20025;-61
2022/08/21 05:46:23;;;;;;;4.45;4.05;;;17.60;99.90;;;;;;5094647;28;20036;-61
2022/08/21 05:48:48;;;;;;;4.55;4.15;;;17.60;99.90;;;;;;5094725;28;20377;-61
2022/08/21 05:51:15;;;;;;;3.53;3.22;;;17.60;99.90;;;;;;5094342;28;20024;-60
2022/08/21 05:53:43;;;;;;;3.40;3.10;;;17.60;99.90;;;;;;5094398;28;20035;-62
2022/08/21 05:56:09;;;;;;;4.30;3.30;;;17.60;99.90;;;;;;5100087;28;20026;-61
2022/08/21 05:58:35;;;;;;;3.95;3.55;;;17.60;99.90;;;;;;5099868;28;20028;-61
2022/08/21 06:01:02;;;;;;;3.80;3.50;;;17.60;99.90;;;;;;5100879;28;20028;-61
2022/08/21 06:03:32;;;;;;;3.90;3.60;;;17.60;99.90;;;;;;5097441;28;20020;-61
2022/08/21 06:05:58;;;;;;;3.67;3.40;;;17.60;99.90;;;;;;5095278;28;20036;-61
2022/08/21 06:08:25;;;;;;;6.13;3.95;;;17.60;99.90;;;;;;5093151;28;20454;-60
2022/08/21 06:10:52;;;;;;;3.50;3.20;;;17.60;99.90;;;;;;5093009;28;20020;-60
2022/08/21 06:13:19;;;;;;;3.63;3.33;;;17.60;99.90;;;;;;5094176;28;20047;-60
2022/08/21 06:15:45;;;;;;;3.83;3.42;;;17.70;99.90;;;;;;5093913;28;20032;-59
2022/08/21 06:18:11;;;;;;;3.60;3.30;;;17.60;99.90;;;;;;5093925;28;20052;-59
2022/08/21 06:20:37;;;;;;;3.83;3.53;;;17.70;99.90;;;;;;5094085;28;20020;-58
2022/08/21 06:23:04;;;;;;;3.75;3.20;;;17.70;99.90;;;;;;5094124;28;20020;-58
2022/08/21 06:25:30;;;;;;;3.80;3.03;;;17.80;99.90;;;;;;5094089;28;20074;-59
2022/08/21 06:28:07;;;;;;;3.75;3.45;;;17.80;99.90;;;;;;5094008;28;20032;-58
2022/08/21 06:30:33;;;;;;;4.13;3.60;;;17.90;99.90;;;;;;5094185;28;20055;-58
2022/08/21 06:32:59;;;;;;;3.70;3.40;;;17.90;99.90;;;;;;5094065;28;20052;-59
2022/08/21 06:35:25;;;;;;;4.10;3.80;;;17.90;99.90;;;;;;5092804;28;20098;-59
2022/08/21 06:37:51;;;;;;;4.10;3.80;;;18.00;99.90;;;;;;5094285;28;20165;-59
2022/08/21 06:40:17;;;;;;;4.60;4.20;;;18.00;99.90;;;;;;5092604;28;20372;-59
2022/08/21 06:42:43;;;;;;;4.57;4.18;;;18.10;99.90;;;;;;5093917;28;20024;-59
2022/08/21 06:45:09;;;;;;;4.47;4.07;;;18.00;99.90;;;;;;5093798;28;20444;-75
2022/08/21 06:47:35;;;;;;;4.55;4.15;;;18.10;99.90;;;;;;5093316;28;20027;-74
2022/08/21 06:50:00;;;;;;;5.07;4.60;;;18.00;99.90;;;;;;5094105;28;20024;-75
2022/08/21 06:52:26;;;;;;;4.40;4.05;;;18.00;99.90;;;;;;5093886;28;20103;-74
2022/08/21 06:54:52;;;;;;;4.35;3.95;;;17.90;99.90;;;;;;5093182;28;20446;-74
2022/08/21 06:57:17;;;;;;;5.13;4.40;;;17.80;99.90;;;;;;5094045;28;20059;-75
2022/08/21 06:59:43;;;;;;;4.35;3.95;;;17.80;99.90;;;;;;5094011;28;20056;-75
2022/08/21 07:02:08;;;;;;;4.90;4.50;;;17.80;99.90;;;;;;5093073;28;20067;-75
2022/08/21 07:04:34;;;;;;;4.43;4.03;;;17.80;99.90;;;;;;5093276;28;20028;-75
2022/08/21 07:07:00;;;;;;;6.50;4.32;;;17.80;99.90;;;;;;5093347;28;20035;-74
2022/08/21 07:09:26;;;;;;;4.57;4.18;;;17.80;99.90;;;;;;5093381;28;20032;-74
2022/08/21 07:11:54;;;;;;;5.05;4.60;;;17.80;99.90;;;;;;5092476;28;20029;-73
2022/08/21 07:14:20;;;;;;;4.38;4.07;;;17.80;99.90;;;;;;5092298;28;20440;-73
2022/08/21 07:16:47;;;;;;;7.30;3.97;;;17.80;99.90;;;;;;5093705;28;20055;-73
2022/08/21 07:19:12;;;;;;;5.07;4.57;;;17.80;99.90;;;;;;5092055;28;20067;-73
2022/08/21 07:21:38;;;;;;;4.55;4.15;;;17.80;99.90;;;;;;5092324;28;20059;-73
2022/08/21 07:24:03;;;;;;;5.20;4.70;;;17.80;99.90;;;;;;5093722;28;20033;-74
2022/08/21 07:26:29;;;;;;;4.70;4.28;;;17.80;99.90;;;;;;5093380;28;20036;-73
2022/08/21 07:28:55;;;;;;;4.50;4.10;;;17.80;99.90;;;;;;5093400;28;20024;-74
2022/08/21 07:31:22;;;;;;;6.88;4.22;;;17.80;99.90;;;;;;5093405;28;20027;-73
2022/08/21 07:33:48;;;;;;;5.55;4.78;;;17.80;99.90;;;;;;5093441;28;20028;-73
2022/08/21 07:36:14;;;;;;;5.60;4.75;;;17.80;99.90;;;;;;5093390;28;20378;-74
2022/08/21 07:38:40;;;;;;;4.93;4.53;;;17.80;99.90;;;;;;5095139;28;20107;-74
2022/08/21 07:41:17;;;;;;;5.20;4.63;;;17.80;99.90;;;;;;5096834;28;20038;-60
2022/08/21 07:43:44;;;;;;;16.08;5.80;;;17.80;99.90;;;;;;5095765;28;20028;-60
2022/08/21 07:46:10;;;;;;;8.13;4.80;;;18.00;99.90;;;;;;5095358;28;20040;-60
2022/08/21 07:48:36;;;;;;;4.78;4.15;;;18.10;99.90;;;;;;5097103;28;20107;-61
2022/08/21 07:51:07;;;;;;;3.83;3.53;;;18.20;99.90;;;;;;5095522;28;20055;-61
2022/08/21 07:53:33;;;;;;;4.63;4.22;;;18.20;99.90;;;;;;5097045;28;20028;-61
2022/08/21 07:55:59;;;;;;;5.20;4.30;;;18.30;99.90;;;;;;5097181;28;20063;-61
2022/08/21 07:58:25;;;;;;;4.68;4.28;;;18.20;99.90;;;;;;5096856;28;20021;-61
2022/08/21 08:00:50;;;;;;;3.65;3.35;;;18.20;99.90;;;;;;5096728;28;20028;-61
2022/08/21 08:03:16;;;;;;;4.68;3.53;;;18.20;99.90;;;;;;5096456;28;20032;-61
2022/08/21 08:05:42;;;;;;;3.33;2.65;;;18.20;99.90;;;;;;5096238;28;20039;-61
2022/08/21 08:08:08;;;;;;;3.88;3.58;;;18.20;99.90;;;;;;5094968;28;20024;-61
2022/08/21 08:10:34;;;;;;;3.95;3.65;;;18.30;99.90;;;;;;5097091;28;20028;-61
2022/08/21 08:13:01;;;;;;;3.72;3.20;;;18.30;99.90;;;;;;5095251;28;20110;-61
2022/08/21 08:15:27;;;;;;;3.67;3.38;;;18.40;99.90;;;;;;5096762;28;20039;-61
2022/08/21 08:17:54;;;;;;;4.50;3.13;;;18.40;99.90;;;;;;5094970;28;20047;-61
2022/08/21 08:20:22;;;;;;;3.22;2.92;;;18.60;99.90;;;;;;5096626;28;20020;-61
2022/08/21 08:22:49;;;;;;;5.07;3.38;;;18.60;99.90;;;;;;5094990;28;20031;-61
2022/08/21 08:25:16;;;;;;;2.83;2.63;;;18.60;99.90;;;;;;5096434;28;20029;-60
2022/08/21 08:27:42;;;;;;;4.78;2.97;;;18.70;99.90;;;;;;5094895;28;20051;-60
2022/08/21 08:30:10;;;;;;;3.20;3.00;;;18.60;99.90;;;;;;5094663;28;20063;-57
2022/08/21 08:32:36;;;;;;;3.73;3.43;;;18.70;99.90;;;;;;5096220;28;20024;-58
2022/08/21 08:35:03;;;;;;;9.90;3.08;;;18.80;99.90;;;;;;5094827;28;20359;-58
2022/08/21 08:37:28;;;;;;;3.80;3.50;;;18.80;99.90;;;;;;5096053;28;20024;-58
2022/08/21 08:39:54;;;;;;;3.70;3.40;;;18.80;99.90;;;;;;5094536;28;20377;-58
2022/08/21 08:42:25;;;;;;;5.20;4.07;;;18.70;99.90;;;;;;5095942;28;20039;-58
2022/08/21 08:45:04;;;;;;;4.32;3.85;;;18.60;99.90;;;;;;5095772;28;20039;-58
2022/08/21 08:47:32;;;;;;;4.53;4.13;;;18.60;99.90;;;;;;5096090;28;20024;-58
2022/08/21 08:50:06;;;;;;;4.20;3.85;;;18.50;99.90;;;;;;5095243;28;20024;-58
2022/08/21 08:52:35;;;;;;;4.65;4.25;;;18.40;99.90;;;;;;5095604;28;20025;-58
2022/08/21 08:55:12;;;;;;;3.75;3.45;;;18.40;99.90;;;;;;5094456;28;20036;-58
2022/08/21 08:57:39;;;;;;;4.13;3.83;;;18.40;99.90;;;;;;5095987;28;20161;-58
2022/08/21 09:00:10;;;;;;;4.43;4.03;;;18.40;99.90;;;;;;5095843;28;20149;-58
2022/08/21 09:02:39;;;;;;;4.80;4.13;;;18.20;99.90;;;;;;5094066;28;20028;-58
2022/08/21 09:05:05;;;;;;;4.80;4.40;;;18.10;99.90;;;;;;5095586;28;20066;-58
2022/08/21 09:08:06;;;;;;;3.92;3.60;;;18.10;99.90;;;;;;5095466;28;20029;-58
2022/08/21 09:10:54;;;;;;;5.63;4.32;;;18.20;99.90;;;;;;5063736;28;20036;-58
2022/08/21 09:13:34;;;;;;;5.63;4.15;;;18.40;99.90;;;;;;5095345;28;20032;-58
2022/08/21 09:16:23;;;;;;;4.30;4.00;;;18.50;99.90;;;;;;5095031;28;20032;-58
2022/08/21 09:19:09;;;;;;;4.28;3.88;;;18.50;99.90;;;;;;5095180;28;20040;-58
2022/08/21 09:21:53;;;;;;;4.38;3.97;;;18.60;99.90;;;;;;5095219;28;20054;-58
2022/08/21 09:24:33;;;;;;;3.35;3.05;;;18.60;99.90;;;;;;5093754;28;20031;-58
2022/08/21 09:27:20;;;;;;;3.35;3.15;;;18.60;99.90;;;;;;5095406;28;20046;-58
2022/08/21 09:29:50;;;;;;;3.50;3.20;;;18.50;99.90;;;;;;5094150;28;20024;-58
2022/08/21 09:32:22;;;;;;;3.60;3.30;;;18.50;99.90;;;;;;5094996;28;20458;-58
2022/08/21 09:35:01;;;;;;;3.05;2.85;;;18.50;99.90;;;;;;5093589;28;20028;-58
2022/08/21 09:37:29;;;;;;;3.10;2.90;;;18.50;99.90;;;;;;5094913;28;20069;-78
2022/08/21 09:39:57;;;;;;;3.43;3.13;;;18.50;99.90;;;;;;5093518;28;20446;-77
2022/08/21 09:42:28;;;;;;;3.83;3.53;;;18.50;99.90;;;;;;5094725;28;20253;-76
2022/08/21 09:45:13;;;;;;;3.45;3.03;;;18.60;99.90;;;;;;5095048;28;20393;-68
2022/08/21 09:47:39;;;;;;;4.28;3.88;;;18.60;99.90;;;;;;5093453;28;20052;-76
2022/08/21 09:50:26;;;;;;;3.65;3.35;;;18.60;99.90;;;;;;5094768;28;20111;-76
2022/08/21 09:52:56;;;;;;;5.18;3.78;;;18.60;99.90;;;;;;5094736;28;20051;-75
2022/08/21 09:58:39;;;;;;;4.15;3.80;;;18.60;99.90;;;;;;5095697;28;20035;-75
2022/08/21 10:01:07;;;;;;;3.47;3.17;;;18.60;99.90;;;;;;5095851;28;20465;-75
2022/08/21 10:03:32;;;;;;;3.70;3.40;;;18.60;99.90;;;;;;5094136;28;20461;-76
2022/08/21 10:06:05;;;;;;;3.97;3.67;;;18.60;99.90;;;;;;5096358;28;20032;-75
2022/08/21 10:08:32;;;;;;;3.92;3.63;;;18.60;99.90;;;;;;5096278;28;20020;-77
2022/08/21 10:11:06;;;;;;;4.18;3.65;;;18.60;99.90;;;;;;5093094;28;20536;-77
2022/08/21 10:13:37;;;;;;;3.55;3.25;;;18.50;99.90;;;;;;5093721;28;20086;-81
2022/08/21 10:16:39;;;;;;;8.73;4.43;;;18.40;99.90;;;;;;5094409;28;20060;-58
2022/08/21 10:19:22;;;;;;;4.22;3.83;;;18.40;99.90;;;;;;5094215;28;20040;-58
2022/08/21 10:21:56;;;;;;;4.88;3.90;;;18.50;99.90;;;;;;5094536;28;20480;-77
2022/08/21 10:24:33;;;;;;;6.05;4.63;;;18.40;99.90;;;;;;5092710;28;20031;-77
2022/08/21 10:27:04;;;;;;;6.75;4.32;;;18.40;99.90;;;;;;5094085;28;20024;-76
2022/08/21 10:29:44;;;;;;;4.55;4.20;;;18.50;99.90;;;;;;5094027;28;20031;-77
2022/08/21 10:32:10;;;;;;;5.88;4.47;;;18.60;99.90;;;;;;5092794;28;20482;-77
2022/08/21 10:34:54;;;;;;;5.03;4.30;;;18.70;99.90;;;;;;5092687;28;20024;-77
2022/08/21 10:37:19;;;;;;;4.78;4.38;;;18.60;99.90;;;;;;5092698;28;20035;-77
2022/08/21 10:40:11;;;;;;;4.40;4.00;;;18.50;99.90;;;;;;5093941;28;20020;-68
2022/08/21 10:43:14;;;;;;;4.28;3.92;;;18.60;99.90;;;;;;5093493;28;20461;-66
2022/08/21 10:46:01;;;;;;;4.93;4.38;;;18.60;99.90;;;;;;5092610;28;20040;-66
2022/08/21 10:48:47;;;;;;;4.65;4.30;;;18.60;99.90;;;;;;5094039;28;20031;-65
2022/08/21 10:51:41;;;;;;;7.35;4.40;;;18.40;99.90;;;;;;5093626;28;20061;-65
2022/08/21 10:54:27;;;;;;;6.40;5.05;;;18.40;99.90;;;;;;5093823;28;20023;-74
2022/08/21 10:57:01;;;;;;;3.75;3.38;;;18.40;99.90;;;;;;5092804;28;20039;-71
2022/08/21 10:59:38;;;;;;;7.78;3.20;;;18.40;99.90;;;;;;5093848;28;20104;-71
2022/08/21 11:02:30;;;;;;;2.47;2.35;;;18.50;99.90;;;;;;5092680;28;20024;-71
2022/08/21 11:05:02;;;;;;;3.03;2.83;;;18.60;99.90;;;;;;5092566;28;20435;-72
2022/08/21 11:07:39;;;;;;;3.78;3.03;;;18.60;99.90;;;;;;5093694;28;20050;-71
2022/08/21 11:10:23;;;;;;;2.88;2.67;;;18.60;99.90;;;;;;5092472;28;20029;-68
2022/08/21 11:13:05;;;;;;;2.70;2.50;;;18.40;99.90;;;;;;5093489;28;20470;-69
2022/08/21 11:15:52;;;;;;;3.20;2.75;;;18.40;99.90;;;;;;5097667;28;20024;-75
2022/08/21 11:18:37;;;;;;;3.13;2.40;;;18.50;99.90;;;;;;5096433;28;20070;-73
2022/08/21 11:21:06;;;;;;;2.92;2.72;;;18.70;99.90;;;;;;5098026;28;20028;-72
2022/08/21 11:23:38;;;;;;;2.58;2.08;;;18.90;99.90;;;;;;5097416;28;20029;-72
2022/08/21 11:26:32;;;;;;;2.42;2.22;;;19.10;99.90;;;;;;5097519;28;20465;-74
2022/08/21 11:29:15;;;;;;;2.97;2.20;;;19.30;99.90;;;;;;5097423;28;20036;-74
2022/08/21 11:31:59;;;;;;;2.72;2.53;;;19.20;99.90;;;;;;5096261;28;20016;-74
2022/08/21 11:34:41;;;;;;;2.05;1.85;;;19.50;99.90;;;;;;5097312;28;20492;-74
2022/08/21 11:37:28;;;;;;;1.73;1.65;;;19.60;99.90;;;;;;5095690;28;20027;-75
2022/08/21 11:40:05;;;;;;;1.85;1.70;;;19.80;99.90;;;;;;5096897;28;20405;-74
2022/08/21 11:42:58;;;;;;;1.73;1.63;;;19.90;99.90;;;;;;5096021;28;20497;-73
2022/08/21 11:45:37;;;;;;;2.20;1.70;;;19.90;99.90;;;;;;5096638;28;20028;-72
2022/08/21 11:48:33;;;;;;;4.67;1.67;;;20.00;99.90;;;;;;5095763;28;20028;-73
2022/08/21 11:51:03;;;;;;;1.52;1.42;;;20.30;99.90;;;;;;5091938;28;20044;-73
2022/08/21 11:53:39;;;;;;;6.40;2.13;;;20.30;99.90;;;;;;5097116;28;20465;-74
2022/08/21 11:56:18;;;;;;;1.60;1.50;;;20.30;99.90;;;;;;5095918;28;20035;-75
2022/08/21 11:58:49;;;;;;;1.70;1.60;;;20.20;99.90;;;;;;5097104;28;20016;-72
2022/08/21 12:01:23;;;;;;;1.48;1.38;;;20.20;99.90;;;;;;5096893;28;20035;-72
2022/08/21 12:04:06;;;;;;;0.98;0.98;;;20.20;99.90;;;;;;5097053;28;20090;-71
2022/08/21 12:06:40;;;;;;;4.00;1.02;;;19.90;99.90;;;;;;5096506;28;20028;-57
2022/08/21 12:09:31;;;;;;;1.35;1.35;;;19.50;99.90;;;;;;5096822;28;20031;-57
2022/08/21 12:12:29;;;;;;;1.45;1.35;;;19.20;99.90;;;;;;5089519;28;20036;-57
2022/08/21 12:15:16;;;;;;;2.75;1.30;;;19.10;99.90;;;;;;5097360;28;20055;-57
2022/08/21 12:18:04;;;;;;;1.70;1.60;;;19.10;99.90;;;;;;5096450;28;20461;-58
2022/08/21 12:20:29;;;;;;;2.55;1.45;;;19.10;99.90;;;;;;5096401;28;20032;-57
2022/08/21 12:23:09;;;;;;;3.75;1.83;;;19.10;99.90;;;;;;5096296;28;20101;-58
2022/08/21 12:25:41;;;;;;;2.28;1.77;;;19.00;99.90;;;;;;5095393;28;20402;-58
2022/08/21 12:28:13;;;;;;;2.05;1.85;;;19.00;99.90;;;;;;5095979;28;20024;-58
2022/08/21 12:30:45;;;;;;;5.28;3.65;;;19.00;99.90;;;;;;5096002;28;20048;-58
2022/08/21 12:33:35;;;;;;;2.30;2.10;;;18.90;99.90;;;;;;5096670;28;20028;-57
2022/08/21 12:36:43;;;;;;;2.40;2.20;;;18.80;99.90;;;;;;5096403;28;20484;-57
2022/08/21 12:39:19;;;;;;;7.53;2.53;;;18.80;99.90;;;;;;5080115;28;20028;-58
2022/08/21 12:41:51;;;;;;;3.45;2.88;;;18.70;99.90;;;;;;5096675;28;20111;-57
2022/08/21 12:44:24;;;;;;;3.20;2.63;;;18.70;99.90;;;;;;5094949;28;20028;-58
2022/08/21 12:47:01;;;;;;;2.70;2.50;;;18.60;99.90;;;;;;5094927;28;20047;-70
2022/08/21 12:49:40;;;;;;;4.57;2.65;;;18.70;99.90;;;;;;5095013;28;20103;-69
2022/08/21 12:52:29;;;;;;;4.05;2.90;;;18.60;99.90;;;;;;5095916;28;20458;-69
2022/08/21 12:54:54;;;;;;;3.97;3.58;;;18.50;99.90;;;;;;5094674;28;20386;-69
2022/08/21 12:57:29;;;;;;;3.88;3.17;;;18.40;99.90;;;;;;5094168;28;20028;-72
2022/08/21 13:00:08;;;;;;;3.42;3.13;;;18.40;99.90;;;;;;5095990;28;20435;-69
2022/08/21 13:02:42;;;;;;;;;;;18.40;99.90;;;;;;5096416;28;20039;-70
2022/08/21 13:05:13;;;;;;;3.72;3.28;;;18.50;99.90;;;;;;5095550;28;19912;-72